createdAt,value
2022-11-14T00:04:35.088Z,6.70
2022-11-14T00:09:56.075Z,6.50
2022-11-14T00:15:17.536Z,6.40
2022-11-14T00:20:38.583Z,6.50
2022-11-14T00:25:59.325Z,6.40
2022-11-14T00:31:20.637Z,6.40
2022-11-14T00:36:41.452Z,6.40
2022-11-14T00:42:02.611Z,6.50
2022-11-14T00:47:23.663Z,6.50
2022-11-14T00:52:44.619Z,6.40
2022-11-14T00:58:06.678Z,6.50
2022-11-14T01:03:27.761Z,6.40
2022-11-14T01:08:51.226Z,6.40
2022-11-14T01:14:12.131Z,6.40
2022-11-14T01:19:33.505Z,6.40
2022-11-14T01:24:55.279Z,6.30
2022-11-14T01:30:16.536Z,6.30
2022-11-14T01:35:38.473Z,6.30
2022-11-14T01:40:59.413Z,6.20
2022-11-14T01:46:34.015Z,6.30
2022-11-14T01:52:09.037Z,6.20
2022-11-14T01:57:40.800Z,6.20
2022-11-14T02:03:03.207Z,6.20
2022-11-14T02:08:25.205Z,6.20
2022-11-14T02:13:46.219Z,6.30
2022-11-14T02:19:07.085Z,6.20
2022-11-14T02:24:28.280Z,6.20
2022-11-14T02:29:49.521Z,6.10
2022-11-14T02:35:11.220Z,6.20
2022-11-14T02:40:32.579Z,6.10
2022-11-14T02:45:53.661Z,6.20
2022-11-14T02:51:14.489Z,6.10
2022-11-14T02:56:35.727Z,6.10
2022-11-14T03:01:56.895Z,6.10
2022-11-14T03:07:18.384Z,6.10
2022-11-14T03:12:39.583Z,6.10
2022-11-14T03:18:00.505Z,6.10
2022-11-14T03:23:21.261Z,6.10
2022-11-14T03:28:43.442Z,6.10
2022-11-14T03:34:04.688Z,6.10
2022-11-14T03:39:26.205Z,6.10
2022-11-14T03:44:47.421Z,6.10
2022-11-14T03:50:08.649Z,6.10
2022-11-14T03:55:30.131Z,6.10
2022-11-14T04:00:51.387Z,6.10
2022-11-14T04:06:12.937Z,6.00
2022-11-14T04:11:33.724Z,6.00
2022-11-14T04:16:54.720Z,6.10
2022-11-14T04:22:15.556Z,6.00
2022-11-14T04:27:36.787Z,6.40
2022-11-14T04:32:57.926Z,6.10
2022-11-14T04:38:18.919Z,6.00
2022-11-14T04:43:40.219Z,6.00
2022-11-14T04:49:01.422Z,6.00
2022-11-14T04:54:22.479Z,6.00
2022-11-14T04:59:43.492Z,6.00
2022-11-14T05:05:05.231Z,5.90
2022-11-14T05:10:26.242Z,6.00
2022-11-14T05:15:47.169Z,6.00
2022-11-14T05:21:13.881Z,6.00
2022-11-14T05:26:34.731Z,6.00
2022-11-14T05:31:56.304Z,6.00
2022-11-14T05:37:17.448Z,6.00
2022-11-14T05:42:38.505Z,6.00
2022-11-14T05:47:59.621Z,5.80
2022-11-14T05:53:20.756Z,5.90
2022-11-14T05:58:42.443Z,5.90
2022-11-14T06:04:06.527Z,5.90
2022-11-14T06:09:27.752Z,5.90
2022-11-14T06:14:48.780Z,5.90
2022-11-14T06:20:10.369Z,5.90
2022-11-14T06:25:31.520Z,5.90
2022-11-14T06:30:56.342Z,5.90
2022-11-14T06:36:17.605Z,5.90
2022-11-14T06:41:38.925Z,5.90
2022-11-14T06:47:00.519Z,6.00
2022-11-14T06:52:22.312Z,6.00
2022-11-14T06:57:43.154Z,6.00
2022-11-14T07:03:04.183Z,5.90
2022-11-14T07:08:25.458Z,5.90
2022-11-14T07:13:46.226Z,6.00
2022-11-14T07:19:11.204Z,6.10
2022-11-14T07:24:32.564Z,6.20
2022-11-14T07:29:53.856Z,6.20
2022-11-14T07:35:15.013Z,6.20
2022-11-14T07:40:36.515Z,6.30
2022-11-14T07:46:06.722Z,6.30
2022-11-14T07:51:28.226Z,6.40
2022-11-14T07:56:49.213Z,6.40
2022-11-14T08:02:14.741Z,6.50
2022-11-14T08:07:36.039Z,6.40
2022-11-14T08:13:25.245Z,6.40
2022-11-14T08:18:42.937Z,6.20
2022-11-14T08:24:04.269Z,6.30
2022-11-14T08:29:25.083Z,6.20
2022-11-14T08:34:46.256Z,6.20
2022-11-14T08:40:07.897Z,6.30
2022-11-14T08:45:30.197Z,6.40
2022-11-14T08:50:51.410Z,6.40
2022-11-14T08:56:12.798Z,6.40
2022-11-14T09:01:33.601Z,6.50
2022-11-14T09:06:54.827Z,6.60
2022-11-14T09:12:17.136Z,6.70
2022-11-14T09:17:37.966Z,6.70
2022-11-14T09:23:00.122Z,6.80
2022-11-14T09:28:21.051Z,6.80
2022-11-14T09:33:42.133Z,6.60
2022-11-14T09:39:03.337Z,6.70
2022-11-14T09:44:53.811Z,6.90
2022-11-14T09:50:26.400Z,7.10
2022-11-14T09:55:47.440Z,6.90
2022-11-14T10:01:17.021Z,7.00
2022-11-14T10:07:15.788Z,7.30
2022-11-14T10:12:58.198Z,7.20
2022-11-14T10:18:47.437Z,7.10
2022-11-14T10:24:23.242Z,7.20
2022-11-14T10:30:03.074Z,7.20
2022-11-14T10:35:36.614Z,7.40
2022-11-14T10:41:05.217Z,7.40
2022-11-14T10:46:32.990Z,7.20
2022-11-14T10:51:57.368Z,7.20
2022-11-14T10:57:21.322Z,7.50
2022-11-14T11:02:54.418Z,7.80
2022-11-14T11:08:43.584Z,7.80
2022-11-14T11:14:04.992Z,7.80
2022-11-14T11:19:27.430Z,7.80
2022-11-14T11:24:48.310Z,7.80
2022-11-14T11:30:20.185Z,7.90
2022-11-14T11:35:43.066Z,7.80
2022-11-14T11:42:02.267Z,7.90
2022-11-14T11:47:11.194Z,8.00
2022-11-14T11:52:41.514Z,8.30
2022-11-14T11:58:21.033Z,7.90
2022-11-14T12:03:50.836Z,7.50
2022-11-14T12:09:19.269Z,7.40
2022-11-14T12:14:59.078Z,7.50
2022-11-14T12:20:44.198Z,7.30
2022-11-14T12:26:23.386Z,7.20
2022-11-14T12:31:45.404Z,7.20
2022-11-14T12:37:22.668Z,7.10
2022-11-14T12:42:48.017Z,7.00
2022-11-14T12:48:22.792Z,7.10
2022-11-14T12:53:44.735Z,7.40
2022-11-14T12:59:28.428Z,7.40
2022-11-14T13:05:14.515Z,7.20
2022-11-14T13:10:41.017Z,7.30
2022-11-14T13:16:41.835Z,7.30
2022-11-14T13:22:12.278Z,7.30
2022-11-14T13:28:05.480Z,7.20
2022-11-14T13:33:54.860Z,7.10
2022-11-14T13:39:23.573Z,7.10
2022-11-14T13:45:16.411Z,6.90
2022-11-14T13:50:40.514Z,6.70
2022-11-14T13:56:02.895Z,6.50
2022-11-14T14:01:30.022Z,6.60
2022-11-14T14:07:10.892Z,6.60
2022-11-14T14:12:56.621Z,6.40
2022-11-14T14:18:23.398Z,6.30
2022-11-14T14:24:06.967Z,6.30
2022-11-14T14:29:58.166Z,6.30
2022-11-14T14:35:26.448Z,6.20
2022-11-14T14:40:47.612Z,6.10
2022-11-14T14:46:08.761Z,6.00
2022-11-14T14:51:35.500Z,6.00
2022-11-14T14:57:02.848Z,6.00
2022-11-14T15:02:25.570Z,6.00
2022-11-14T15:07:49.536Z,5.90
2022-11-14T15:13:16.162Z,5.90
2022-11-14T15:18:38.662Z,5.80
2022-11-14T15:24:16.505Z,5.60
2022-11-14T15:29:46.502Z,5.50
2022-11-14T15:35:37.772Z,6.00
2022-11-14T15:41:19.682Z,5.30
2022-11-14T15:46:44.015Z,5.10
2022-11-14T15:52:05.993Z,5.10
2022-11-14T15:57:27.053Z,4.90
2022-11-14T16:02:54.718Z,4.80
2022-11-14T16:08:15.962Z,4.80
2022-11-14T16:13:37.204Z,4.60
2022-11-14T16:18:58.683Z,4.60
2022-11-14T16:24:23.642Z,4.50
2022-11-14T16:29:47.415Z,4.50
2022-11-14T16:35:20.899Z,4.50
2022-11-14T16:40:44.260Z,4.50
2022-11-14T16:46:07.073Z,4.50
2022-11-14T16:57:09.496Z,4.50
2022-11-14T17:02:30.709Z,4.50
2022-11-14T17:07:51.804Z,4.40
2022-11-14T17:13:14.504Z,4.40
2022-11-14T17:18:38.572Z,4.50
2022-11-14T17:24:01.676Z,4.50
2022-11-14T17:29:22.672Z,4.50
2022-11-14T17:34:43.993Z,4.50
2022-11-14T17:40:05.559Z,4.60
2022-11-14T17:45:26.523Z,4.50
2022-11-14T17:50:47.462Z,4.50
2022-11-14T17:56:13.455Z,4.50
2022-11-14T18:01:34.976Z,4.50
2022-11-14T18:06:56.159Z,4.50
2022-11-14T18:12:17.349Z,4.40
2022-11-14T18:17:38.830Z,4.60
2022-11-14T18:23:00.108Z,4.60
2022-11-14T18:28:22.830Z,4.80
2022-11-14T18:33:43.892Z,4.90
2022-11-14T18:39:04.871Z,4.90
2022-11-14T18:44:26.103Z,5.00
2022-11-14T18:49:47.337Z,5.00
2022-11-14T18:55:08.693Z,4.90
2022-11-14T19:00:29.611Z,5.00
2022-11-14T19:05:50.675Z,5.00
2022-11-14T19:11:33.880Z,5.00
2022-11-14T19:16:54.980Z,5.00
2022-11-14T19:22:17.182Z,5.00
2022-11-14T19:27:39.983Z,5.00
2022-11-14T19:33:04.685Z,5.00
2022-11-14T19:38:26.202Z,5.00
2022-11-14T19:43:48.526Z,5.00
2022-11-14T19:49:10.129Z,5.00
2022-11-14T19:54:31.083Z,5.10
2022-11-14T19:59:52.513Z,5.10
2022-11-14T20:05:13.611Z,5.10
2022-11-14T20:10:47.634Z,5.10
2022-11-14T20:16:21.447Z,5.10
2022-11-14T20:21:43.289Z,5.10
2022-11-14T20:27:04.619Z,5.10
2022-11-14T20:32:27.219Z,5.10
2022-11-14T20:37:48.437Z,5.10
2022-11-14T20:43:09.633Z,5.00
2022-11-14T20:48:33.764Z,5.00
2022-11-14T20:53:55.626Z,5.00
2022-11-14T20:59:16.809Z,5.00
2022-11-14T21:04:38.003Z,5.00
2022-11-14T21:10:17.898Z,5.10
2022-11-14T21:15:39.422Z,5.10
2022-11-14T21:21:12.176Z,5.10
2022-11-14T21:26:36.470Z,5.10
2022-11-14T21:31:58.021Z,5.10
2022-11-14T21:37:19.048Z,5.00
2022-11-14T21:42:40.056Z,5.10
2022-11-14T21:48:00.839Z,5.10
2022-11-14T21:53:22.151Z,5.10
2022-11-14T21:58:43.829Z,5.10
2022-11-14T22:04:14.600Z,5.10
2022-11-14T22:09:36.363Z,5.00
2022-11-14T22:14:59.226Z,5.00
2022-11-14T22:20:23.409Z,5.00
2022-11-14T22:25:44.337Z,5.00
2022-11-14T22:31:08.240Z,5.00
2022-11-14T22:36:29.546Z,5.00
2022-11-14T22:41:50.821Z,5.00
2022-11-14T22:47:11.674Z,5.00
2022-11-14T22:52:33.070Z,5.00
2022-11-14T22:57:54.257Z,5.00
2022-11-14T23:03:22.159Z,5.10
2022-11-14T23:08:43.702Z,5.10
2022-11-14T23:14:04.954Z,5.10
2022-11-14T23:19:25.957Z,5.00
2022-11-14T23:24:47.082Z,5.00
2022-11-14T23:30:08.951Z,5.00
2022-11-14T23:35:29.868Z,5.00
2022-11-14T23:40:59.597Z,5.00
2022-11-14T23:46:20.745Z,4.90
2022-11-14T23:51:41.831Z,5.00
2022-11-14T23:57:04.564Z,5.00
